Time;durP1;ratioP1;P1;durP2;ratioP2;P2;SDS_P1;SDS_P2;PMS_P1;PMS_P2;Temp;Humidity;BMP_temperature;BMP_pressure;BME280_temperature;BME280_humidity;BME280_pressure;Samples;Min_cycle;Max_cycle;Signal;HPM_P1;HPM_P2
2021/09/09 00:01:42;;;;;;;5.95;3.83;;;19.90;99.90;;;;;;4979420;28;20030;-72
2021/09/09 00:04:08;;;;;;;9.07;3.65;;;18.70;99.90;;;;;;4979357;28;20867;-73
2021/09/09 00:06:34;;;;;;;3.95;3.58;;;19.70;99.90;;;;;;4979375;28;20538;-73
2021/09/09 00:09:00;;;;;;;5.75;3.30;;;18.80;99.90;;;;;;4979065;28;20077;-73
2021/09/09 00:11:26;;;;;;;5.78;3.10;;;19.10;99.90;;;;;;4979248;28;20041;-73
2021/09/09 00:13:52;;;;;;;5.45;2.67;;;18.80;99.90;;;;;;4979293;28;20035;-73
2021/09/09 00:16:19;;;;;;;5.25;2.83;;;18.90;99.90;;;;;;4979029;28;20110;-73
2021/09/09 00:18:44;;;;;;;3.75;2.38;;;19.00;99.90;;;;;;4979202;28;20031;-73
2021/09/09 00:21:11;;;;;;;4.38;1.63;;;18.90;99.90;;;;;;4979061;28;20564;-73
2021/09/09 00:23:36;;;;;;;5.78;2.33;;;18.60;99.90;;;;;;4978623;28;20023;-73
2021/09/09 00:26:04;;;;;;;5.85;3.08;;;18.90;99.90;;;;;;4978768;28;20023;-73
2021/09/09 00:28:30;;;;;;;2.80;2.03;;;18.80;99.90;;;;;;4978935;28;20037;-73
2021/09/09 00:30:57;;;;;;;3.75;1.83;;;19.00;99.90;;;;;;4977518;28;20470;-73
2021/09/09 00:33:22;;;;;;;6.55;2.70;;;19.00;99.90;;;;;;4978915;28;20054;-73
2021/09/09 00:35:48;;;;;;;3.38;1.85;;;19.20;99.90;;;;;;4979002;28;20030;-73
2021/09/09 00:38:14;;;;;;;2.53;1.65;;;19.10;99.90;;;;;;4978480;28;20031;-73
2021/09/09 00:40:40;;;;;;;8.48;2.25;;;18.90;99.90;;;;;;4978646;28;20030;-73
2021/09/09 00:43:06;;;;;;;5.60;2.08;;;18.80;99.90;;;;;;4978903;28;20510;-73
2021/09/09 00:45:32;;;;;;;5.00;2.08;;;18.90;99.90;;;;;;4978608;28;20066;-73
2021/09/09 00:47:58;;;;;;;3.25;1.83;;;18.90;99.90;;;;;;4978677;28;20027;-73
2021/09/09 00:50:24;;;;;;;3.20;1.95;;;19.10;99.90;;;;;;4978173;28;20030;-73
2021/09/09 00:52:51;;;;;;;4.25;1.80;;;18.90;99.90;;;;;;4978309;28;20049;-73
2021/09/09 00:55:18;;;;;;;3.97;1.67;;;19.00;99.90;;;;;;4978494;28;20030;-73
2021/09/09 00:57:45;;;;;;;5.05;1.65;;;19.20;99.90;;;;;;4978554;28;20030;-73
2021/09/09 01:00:13;;;;;;;2.35;1.92;;;19.10;99.90;;;;;;4978391;28;20031;-73
2021/09/09 01:02:40;;;;;;;2.67;1.70;;;18.90;99.90;;;;;;4978701;28;20030;-73
2021/09/09 01:05:07;;;;;;;5.55;2.10;;;19.00;99.90;;;;;;4978328;28;20054;-73
2021/09/09 01:07:33;;;;;;;8.40;2.15;;;19.00;99.90;;;;;;4978231;28;20019;-73
2021/09/09 01:10:00;;;;;;;4.78;1.70;;;19.00;99.90;;;;;;4978392;28;20376;-73
2021/09/09 01:12:26;;;;;;;6.75;1.83;;;18.90;99.90;;;;;;4977244;28;20113;-73
2021/09/09 01:14:53;;;;;;;4.75;2.20;;;18.90;99.90;;;;;;4978415;28;20030;-73
2021/09/09 01:17:19;;;;;;;5.47;1.67;;;19.10;99.90;;;;;;4978203;28;20069;-73
2021/09/09 01:19:45;;;;;;;1.50;1.40;;;19.00;99.90;;;;;;4978470;28;20034;-73
2021/09/09 01:22:10;;;;;;;2.58;1.60;;;19.10;99.90;;;;;;4978340;28;20030;-73
2021/09/09 01:24:36;;;;;;;9.63;1.65;;;19.20;99.90;;;;;;4978149;28;20030;-73
2021/09/09 01:27:05;;;;;;;8.15;1.70;;;18.90;99.90;;;;;;4978383;28;20491;-73
2021/09/09 01:29:37;;;;;;;8.35;1.55;;;19.20;99.90;;;;;;4978381;28;20116;-73
2021/09/09 01:32:05;;;;;;;4.43;1.77;;;19.00;99.90;;;;;;4978367;28;20022;-73
2021/09/09 01:34:31;;;;;;;9.45;1.50;;;19.10;99.90;;;;;;4978099;28;20022;-73
2021/09/09 01:36:57;;;;;;;6.10;2.03;;;18.90;99.90;;;;;;4978171;28;20026;-73
2021/09/09 01:39:23;;;;;;;7.57;1.95;;;19.20;99.90;;;;;;4978170;28;20031;-73
2021/09/09 01:41:51;;;;;;;8.07;2.75;;;19.10;99.90;;;;;;4978276;28;20388;-73
2021/09/09 01:44:17;;;;;;;7.55;2.53;;;19.10;99.90;;;;;;4978049;28;20031;-73
2021/09/09 01:46:43;;;;;;;5.97;1.90;;;19.00;99.90;;;;;;4976771;28;20034;-73
2021/09/09 01:49:09;;;;;;;2.92;1.63;;;18.90;99.90;;;;;;4976694;28;20039;-73
2021/09/09 01:51:35;;;;;;;6.45;1.80;;;19.00;99.90;;;;;;4978426;28;20029;-73
2021/09/09 01:54:01;;;;;;;6.90;1.98;;;19.20;99.90;;;;;;4977637;28;20038;-73
2021/09/09 01:56:27;;;;;;;9.27;2.28;;;19.30;99.90;;;;;;4978117;28;20079;-73
2021/09/09 01:58:53;;;;;;;6.68;2.00;;;19.00;99.90;;;;;;4977865;28;20031;-73
2021/09/09 02:01:19;;;;;;;7.97;2.38;;;19.00;99.90;;;;;;4978274;28;20561;-73
2021/09/09 02:03:45;;;;;;;4.80;2.28;;;19.20;99.90;;;;;;4981027;28;20022;-73
2021/09/09 02:06:12;;;;;;;7.82;1.67;;;19.20;99.90;;;;;;4980230;28;20106;-73
2021/09/09 02:08:38;;;;;;;5.22;1.83;;;19.10;99.90;;;;;;4980949;28;20065;-73
2021/09/09 02:11:04;;;;;;;7.85;1.88;;;19.00;99.90;;;;;;4981481;28;20019;-73
2021/09/09 02:13:30;;;;;;;9.85;2.13;;;19.20;99.90;;;;;;4981267;28;20030;-73
2021/09/09 02:15:56;;;;;;;7.05;2.42;;;19.20;99.90;;;;;;4981610;28;20033;-73
2021/09/09 02:18:21;;;;;;;4.07;1.75;;;19.20;99.90;;;;;;4979762;28;20067;-73
2021/09/09 02:20:48;;;;;;;6.18;2.35;;;;;;;;;;4980017;28;20031;-73
2021/09/09 02:23:13;;;;;;;8.15;2.22;;;19.10;99.90;;;;;;4980904;28;20035;-73
2021/09/09 02:25:39;;;;;;;4.03;2.08;;;19.10;99.90;;;;;;4981415;28;20026;-73
2021/09/09 02:28:06;;;;;;;7.75;1.85;;;19.10;99.90;;;;;;4981179;28;20495;-73
2021/09/09 02:30:32;;;;;;;13.27;2.97;;;18.90;99.90;;;;;;4981063;28;20023;-73
2021/09/09 02:32:58;;;;;;;7.32;2.20;;;19.00;99.90;;;;;;4980889;28;20031;-73
2021/09/09 02:35:24;;;;;;;7.40;2.05;;;19.20;99.90;;;;;;4981202;28;20035;-73
2021/09/09 02:37:50;;;;;;;5.68;1.63;;;19.20;99.90;;;;;;4980529;28;20033;-73
2021/09/09 02:40:16;;;;;;;8.93;3.05;;;18.80;99.90;;;;;;4981059;28;20026;-73
2021/09/09 02:42:42;;;;;;;10.68;3.05;;;19.20;99.90;;;;;;4979385;28;20031;-73
2021/09/09 02:45:09;;;;;;;7.63;2.03;;;18.90;99.90;;;;;;4980899;28;20023;-73
2021/09/09 02:47:36;;;;;;;4.95;1.95;;;18.80;99.90;;;;;;4980538;28;20015;-73
2021/09/09 02:50:02;;;;;;;5.57;1.58;;;18.90;99.90;;;;;;4980835;28;20027;-73
2021/09/09 02:52:28;;;;;;;12.00;2.78;;;19.00;99.90;;;;;;4980233;28;20430;-73
2021/09/09 02:54:54;;;;;;;6.78;2.00;;;19.60;99.90;;;;;;4981012;28;20084;-73
2021/09/09 02:57:20;;;;;;;7.13;1.90;;;19.20;99.90;;;;;;4980651;28;20406;-73
2021/09/09 02:59:46;;;;;;;13.73;2.85;;;19.20;99.90;;;;;;4980668;28;20059;-73
2021/09/09 03:02:12;;;;;;;10.32;2.63;;;19.20;99.90;;;;;;4980861;28;20585;-73
2021/09/09 03:04:38;;;;;;;5.13;1.88;;;19.00;99.90;;;;;;4980503;28;20031;-73
2021/09/09 03:07:03;;;;;;;5.88;1.73;;;19.10;99.90;;;;;;4980090;28;20027;-73
2021/09/09 03:09:29;;;;;;;7.05;2.05;;;19.20;99.90;;;;;;4980135;28;20047;-73
2021/09/09 03:11:55;;;;;;;7.10;1.98;;;19.00;99.90;;;;;;4980138;28;20098;-73
2021/09/09 03:14:21;;;;;;;9.82;2.63;;;18.70;99.90;;;;;;4980178;28;20019;-73
2021/09/09 03:16:47;;;;;;;6.47;2.53;;;19.00;99.90;;;;;;4978913;28;20058;-73
2021/09/09 03:19:14;;;;;;;8.48;2.33;;;18.80;99.90;;;;;;4980313;28;20470;-73
2021/09/09 03:21:40;;;;;;;6.05;2.05;;;19.00;99.90;;;;;;4980029;28;20060;-73
2021/09/09 03:24:06;;;;;;;7.82;2.38;;;18.90;99.90;;;;;;4980107;28;20475;-73
2021/09/09 03:26:32;;;;;;;12.90;2.53;;;18.70;99.90;;;;;;4980134;28;20033;-73
2021/09/09 03:28:58;;;;;;;11.82;2.28;;;19.00;99.90;;;;;;4980272;28;20037;-73
2021/09/09 03:31:24;;;;;;;10.35;2.55;;;18.80;99.90;;;;;;4979837;28;20073;-73
2021/09/09 03:33:49;;;;;;;11.07;2.53;;;18.80;99.90;;;;;;4980102;28;20058;-73
2021/09/09 03:36:15;;;;;;;6.45;2.60;;;18.70;99.90;;;;;;4979624;28;20023;-73
2021/09/09 03:38:41;;;;;;;11.57;2.95;;;19.10;99.90;;;;;;4979676;28;20033;-73
2021/09/09 03:41:08;;;;;;;10.32;3.03;;;18.70;99.90;;;;;;4979649;28;20039;-73
2021/09/09 03:43:34;;;;;;;7.45;1.77;;;18.60;99.90;;;;;;4979730;28;20031;-73
2021/09/09 03:46:00;;;;;;;11.23;2.20;;;18.60;99.90;;;;;;4979463;28;20019;-73
2021/09/09 03:48:26;;;;;;;11.48;3.10;;;18.60;99.90;;;;;;4979694;28;20522;-73
2021/09/09 03:50:52;;;;;;;12.65;2.05;;;18.90;99.90;;;;;;4979532;28;20035;-73
2021/09/09 03:53:18;;;;;;;8.07;2.38;;;18.60;99.90;;;;;;4979261;28;20030;-73
2021/09/09 03:55:44;;;;;;;6.65;1.85;;;18.60;99.90;;;;;;4979359;28;20042;-73
2021/09/09 03:58:10;;;;;;;7.25;2.72;;;18.90;99.90;;;;;;4978053;28;20031;-73
2021/09/09 04:00:36;;;;;;;5.93;1.70;;;18.70;99.90;;;;;;4979233;28;20031;-73
2021/09/09 04:03:03;;;;;;;7.05;1.70;;;18.70;99.90;;;;;;4979744;28;20018;-73
2021/09/09 04:05:30;;;;;;;7.85;2.33;;;18.90;99.90;;;;;;4979368;28;20058;-73
2021/09/09 04:07:56;;;;;;;4.80;1.60;;;18.70;99.90;;;;;;4978910;28;20035;-73
2021/09/09 04:10:22;;;;;;;7.10;1.98;;;18.90;99.90;;;;;;4979066;28;20026;-73
2021/09/09 04:12:49;;;;;;;9.48;2.58;;;18.50;99.90;;;;;;4979473;28;20090;-73
2021/09/09 04:15:15;;;;;;;5.72;2.08;;;18.60;99.90;;;;;;4979039;28;20063;-73
2021/09/09 04:17:41;;;;;;;8.40;2.45;;;18.60;99.90;;;;;;4978877;28;20027;-73
2021/09/09 04:20:07;;;;;;;11.65;2.28;;;18.60;99.90;;;;;;4977798;28;20470;-73
2021/09/09 04:22:33;;;;;;;8.73;2.40;;;18.70;99.90;;;;;;4977319;28;20498;-73
2021/09/09 04:25:00;;;;;;;10.38;2.60;;;18.60;99.90;;;;;;4977580;28;20035;-73
2021/09/09 04:27:26;;;;;;;8.20;2.80;;;18.60;99.90;;;;;;4978500;28;20387;-73
2021/09/09 04:29:52;;;;;;;9.45;2.50;;;18.70;99.90;;;;;;4978944;28;20031;-73
2021/09/09 04:32:19;;;;;;;6.70;2.03;;;18.70;99.90;;;;;;4978919;28;20027;-74
2021/09/09 04:34:45;;;;;;;10.80;2.83;;;18.80;99.90;;;;;;4977652;28;20395;-73
2021/09/09 04:37:11;;;;;;;8.65;2.50;;;18.90;99.90;;;;;;4977260;28;20069;-73
2021/09/09 04:39:36;;;;;;;8.45;2.63;;;18.80;99.90;;;;;;4977469;28;20109;-73
2021/09/09 04:42:03;;;;;;;20.15;3.65;;;18.80;99.90;;;;;;4977463;28;20027;-73
2021/09/09 04:44:28;;;;;;;8.75;2.60;;;18.80;99.90;;;;;;4978755;28;20551;-73
2021/09/09 04:46:54;;;;;;;13.50;3.45;;;18.80;99.90;;;;;;4978584;28;20050;-74
2021/09/09 04:49:20;;;;;;;7.18;3.00;;;18.70;99.90;;;;;;4978777;28;20517;-73
2021/09/09 04:51:46;;;;;;;7.80;2.05;;;18.80;99.90;;;;;;4978391;28;20030;-73
2021/09/09 04:54:12;;;;;;;9.48;2.58;;;18.70;99.90;;;;;;4978597;28;20069;-73
2021/09/09 04:56:38;;;;;;;14.07;2.80;;;18.60;99.90;;;;;;4972746;28;20065;-72
2021/09/09 04:59:03;;;;;;;7.68;2.47;;;18.70;99.90;;;;;;4968857;28;20396;-72
2021/09/09 05:01:30;;;;;;;11.50;2.40;;;;;;;;;;4976713;28;20026;-72
2021/09/09 05:03:56;;;;;;;9.73;2.70;;;;;;;;;;4963912;28;20501;-72
2021/09/09 05:06:22;;;;;;;7.47;2.60;;;;;;;;;;4978414;28;20037;-73
2021/09/09 05:08:48;;;;;;;7.28;2.67;;;;;;;;;;4977960;28;20055;-73
2021/09/09 05:11:16;;;;;;;9.00;3.08;;;;;;;;;;4977757;28;20019;-73
2021/09/09 05:13:43;;;;;;;7.50;2.20;;;;;;;;;;4978367;28;20569;-73
2021/09/09 05:16:09;;;;;;;5.13;2.15;;;;;;;;;;4978043;28;20498;-73
2021/09/09 05:18:35;;;;;;;10.52;2.42;;;;;;;;;;4977806;28;20022;-73
2021/09/09 05:21:01;;;;;;;9.20;2.88;;;;;;;;;;4978360;28;20033;-73
2021/09/09 05:23:27;;;;;;;12.65;2.60;;;;;;;;;;4978209;28;20372;-73
2021/09/09 05:25:53;;;;;;;10.13;3.28;;;;;;;;;;4978115;28;20031;-73
2021/09/09 05:28:20;;;;;;;11.95;2.63;;;;;;;;;;4977864;28;20066;-73
2021/09/09 05:30:46;;;;;;;10.55;3.13;;;;;;;;;;4978137;28;20043;-73
2021/09/09 05:33:13;;;;;;;8.88;2.60;;;;;;;;;;4977779;28;20030;-74
2021/09/09 05:35:40;;;;;;;6.72;2.53;;;;;;;;;;4978115;28;20026;-74
2021/09/09 05:38:07;;;;;;;8.32;2.30;;;;;;;;;;4980335;28;20034;-73
2021/09/09 05:40:33;;;;;;;8.10;2.65;;;;;;;;;;4981104;28;20023;-74
2021/09/09 05:42:59;;;;;;;8.65;3.00;;;;;;;;;;4982435;28;20541;-73
2021/09/09 05:45:25;;;;;;;12.23;2.72;;;;;;;;;;4982219;28;20026;-74
2021/09/09 05:47:51;;;;;;;9.43;2.42;;;18.80;99.90;;;;;;4981873;28;20038;-74
2021/09/09 05:50:18;;;;;;;8.45;2.15;;;18.90;99.90;;;;;;4981881;28;20019;-74
2021/09/09 05:52:47;;;;;;;9.10;2.70;;;18.90;99.90;;;;;;4981528;28;20030;-73
2021/09/09 05:55:14;;;;;;;6.20;2.22;;;18.80;99.90;;;;;;4981789;28;20030;-74
2021/09/09 05:57:40;;;;;;;7.75;2.40;;;18.70;99.90;;;;;;4981638;28;20026;-74
2021/09/09 06:00:08;;;;;;;6.40;2.53;;;19.00;99.90;;;;;;4981844;28;20054;-74
2021/09/09 06:02:40;;;;;;;5.88;2.85;;;18.80;99.90;;;;;;4981618;28;20438;-74
2021/09/09 06:05:07;;;;;;;10.85;2.85;;;18.70;99.90;;;;;;4980144;28;20053;-74
2021/09/09 06:07:32;;;;;;;7.13;2.70;;;18.80;99.90;;;;;;4979713;28;20093;-74
2021/09/09 06:09:58;;;;;;;12.75;3.13;;;18.90;99.90;;;;;;4981332;28;20027;-73
2021/09/09 06:12:26;;;;;;;6.55;2.88;;;18.80;99.90;;;;;;4980564;28;20026;-74
2021/09/09 06:14:53;;;;;;;6.60;2.42;;;18.90;99.90;;;;;;4981277;28;20023;-73
2021/09/09 06:17:19;;;;;;;9.15;2.60;;;18.90;99.90;;;;;;4981173;28;20078;-74
2021/09/09 06:19:45;;;;;;;9.98;3.25;;;18.90;99.90;;;;;;4981234;28;20027;-74
2021/09/09 06:22:11;;;;;;;7.00;2.75;;;18.90;99.90;;;;;;4979732;28;20026;-74
2021/09/09 06:24:37;;;;;;;17.25;4.53;;;18.90;99.90;;;;;;4979658;28;20461;-74
2021/09/09 06:27:03;;;;;;;10.13;2.53;;;19.20;99.90;;;;;;4980177;28;20034;-73
2021/09/09 06:29:29;;;;;;;7.65;2.75;;;19.10;99.90;;;;;;4979689;28;20015;-73
2021/09/09 06:31:55;;;;;;;8.55;2.40;;;19.10;99.90;;;;;;4981171;28;20430;-74
2021/09/09 06:34:21;;;;;;;6.63;2.50;;;19.30;99.90;;;;;;4980998;28;20083;-74
2021/09/09 06:36:47;;;;;;;9.18;2.70;;;19.30;99.90;;;;;;4980852;28;20501;-74
2021/09/09 06:39:18;;;;;;;8.57;3.20;;;19.20;99.90;;;;;;4980848;28;20105;-74
2021/09/09 06:41:44;;;;;;;11.68;4.38;;;19.20;99.90;;;;;;4979628;28;20114;-74
2021/09/09 06:44:12;;;;;;;14.98;3.65;;;19.40;99.90;;;;;;4980778;28;20019;-73
2021/09/09 06:46:39;;;;;;;10.00;2.70;;;;;;;;;;4980757;28;20030;-74
2021/09/09 06:49:05;;;;;;;8.40;3.20;;;;;;;;;;4979737;28;20106;-73
2021/09/09 06:51:32;;;;;;;10.95;3.28;;;;;;;;;;4979265;28;20505;-73
2021/09/09 06:53:58;;;;;;;9.77;3.30;;;19.90;99.90;;;;;;4980614;28;20027;-73
2021/09/09 06:56:25;;;;;;;10.50;3.03;;;;;;;;;;4979364;28;20097;-73
2021/09/09 06:58:51;;;;;;;11.85;3.38;;;20.10;99.90;;;;;;4980525;28;20387;-73
2021/09/09 07:01:17;;;;;;;9.93;3.15;;;20.30;99.90;;;;;;4979319;28;20034;-73
2021/09/09 07:03:43;;;;;;;8.93;2.97;;;20.20;99.90;;;;;;4980297;28;20031;-73
2021/09/09 07:06:09;;;;;;;13.50;2.95;;;20.30;99.90;;;;;;4980428;28;20033;-73
2021/09/09 07:08:35;;;;;;;10.63;3.35;;;20.20;99.90;;;;;;4979895;28;20042;-73
2021/09/09 07:11:01;;;;;;;11.70;3.78;;;20.30;99.90;;;;;;4980401;28;20027;-73
2021/09/09 07:13:31;;;;;;;14.75;3.70;;;20.30;99.90;;;;;;4980319;28;20157;-73
2021/09/09 07:15:57;;;;;;;8.75;2.58;;;20.50;99.90;;;;;;4978717;28;20031;-73
2021/09/09 07:18:24;;;;;;;9.88;2.80;;;;;;;;;;4978594;28;20037;-74
2021/09/09 07:20:50;;;;;;;13.45;3.40;;;20.50;99.90;;;;;;4980214;28;20085;-74
2021/09/09 07:23:17;;;;;;;10.93;3.70;;;21.00;99.90;;;;;;4978154;28;20042;-74
2021/09/09 07:25:43;;;;;;;7.35;3.00;;;21.00;99.90;;;;;;4978809;28;20031;-74
2021/09/09 07:28:09;;;;;;;7.65;3.00;;;21.00;99.90;;;;;;4980047;28;20027;-73
2021/09/09 07:30:35;;;;;;;9.10;3.17;;;21.00;99.90;;;;;;4978775;28;20109;-73
2021/09/09 07:33:01;;;;;;;11.88;3.50;;;;;;;;;;4979803;28;20026;-73
2021/09/09 07:35:27;;;;;;;9.02;2.95;;;21.70;99.90;;;;;;4980160;28;20038;-73
2021/09/09 07:37:54;;;;;;;7.35;3.08;;;21.50;99.90;;;;;;4979525;28;20505;-73
2021/09/09 07:40:22;;;;;;;13.43;3.97;;;21.50;99.90;;;;;;4980050;28;20023;-74
2021/09/09 07:42:48;;;;;;;8.52;2.95;;;21.40;99.90;;;;;;4979522;28;20027;-73
2021/09/09 07:45:14;;;;;;;9.85;3.08;;;21.40;99.90;;;;;;4979683;28;20030;-73
2021/09/09 07:47:40;;;;;;;9.20;2.88;;;21.40;99.90;;;;;;4978369;28;20018;-73
2021/09/09 07:50:08;;;;;;;8.25;3.17;;;21.20;99.90;;;;;;4979902;28;20031;-74
2021/09/09 07:52:35;;;;;;;10.90;3.13;;;21.30;99.90;;;;;;4979634;28;20106;-73
2021/09/09 07:55:01;;;;;;;10.27;3.08;;;21.30;99.90;;;;;;4979482;28;20078;-74
2021/09/09 07:57:27;;;;;;;7.32;3.22;;;21.20;99.90;;;;;;4979541;28;20029;-73
2021/09/09 07:59:53;;;;;;;4.07;2.53;;;21.20;99.90;;;;;;4979603;28;20101;-73
2021/09/09 08:02:19;;;;;;;9.65;4.00;;;21.00;99.90;;;;;;4979253;28;20517;-73
2021/09/09 08:04:45;;;;;;;7.40;2.70;;;21.20;99.90;;;;;;4979793;28;20038;-74
2021/09/09 08:07:10;;;;;;;4.65;2.67;;;21.40;99.90;;;;;;4979202;28;20019;-73
2021/09/09 08:09:36;;;;;;;7.78;2.97;;;21.20;99.90;;;;;;4978968;28;20043;-74
2021/09/09 08:12:02;;;;;;;7.05;3.33;;;21.40;99.90;;;;;;4965273;28;20450;-73
2021/09/09 08:14:29;;;;;;;6.35;3.08;;;21.30;99.90;;;;;;4977924;28;20054;-73
2021/09/09 08:16:55;;;;;;;7.55;2.13;;;21.40;99.90;;;;;;4978981;28;20514;-74
2021/09/09 08:19:21;;;;;;;10.95;3.20;;;21.40;99.90;;;;;;4979209;28;20027;-74
2021/09/09 08:21:47;;;;;;;13.63;3.25;;;21.10;99.90;;;;;;4978897;28;20045;-73
2021/09/09 08:24:13;;;;;;;8.43;2.58;;;21.20;99.90;;;;;;4977834;28;20039;-73
2021/09/09 08:26:38;;;;;;;4.60;2.33;;;21.00;99.90;;;;;;4979094;28;20019;-74
2021/09/09 08:29:04;;;;;;;4.47;2.45;;;21.00;99.90;;;;;;4979231;28;20034;-73
2021/09/09 08:31:31;;;;;;;7.55;2.40;;;21.00;99.90;;;;;;4978937;28;20023;-73
2021/09/09 08:33:57;;;;;;;10.23;3.05;;;21.10;99.90;;;;;;4977546;28;20061;-74
2021/09/09 08:36:24;;;;;;;7.00;3.08;;;21.10;99.90;;;;;;4977581;28;20133;-73
2021/09/09 08:38:50;;;;;;;8.48;2.75;;;21.10;99.90;;;;;;4978888;28;20089;-74
2021/09/09 08:41:16;;;;;;;4.50;2.70;;;21.00;99.90;;;;;;4978746;28;20029;-73
2021/09/09 08:43:43;;;;;;;6.82;3.08;;;21.00;99.90;;;;;;4978845;28;20089;-74
2021/09/09 08:46:11;;;;;;;7.93;2.95;;;20.90;99.90;;;;;;4978857;28;20069;-73
2021/09/09 08:48:41;;;;;;;12.45;3.90;;;21.10;99.90;;;;;;4977393;28;20113;-73
2021/09/09 08:51:07;;;;;;;12.77;3.85;;;20.90;99.90;;;;;;4978802;28;20023;-73
2021/09/09 08:53:34;;;;;;;8.25;3.35;;;20.60;99.90;;;;;;4978338;28;20486;-73
2021/09/09 08:56:00;;;;;;;10.27;3.20;;;20.70;99.90;;;;;;4977342;28;20023;-73
2021/09/09 08:58:26;;;;;;;12.35;3.10;;;20.70;99.90;;;;;;4978928;28;20479;-73
2021/09/09 09:01:14;;;;;;;6.47;3.38;;;20.50;99.90;;;;;;4978709;28;20106;-73
2021/09/09 09:03:51;;;;;;;5.97;2.85;;;20.60;99.90;;;;;;4978719;28;20031;-73
2021/09/09 09:06:24;;;;;;;8.10;2.08;;;20.40;99.90;;;;;;4978503;28;20022;-73
2021/09/09 09:08:51;;;;;;;5.18;2.22;;;20.70;99.90;;;;;;4976916;28;20074;-73
2021/09/09 09:11:44;;;;;;;3.53;2.25;;;20.70;99.90;;;;;;4978431;28;20019;-72
2021/09/09 09:14:13;;;;;;;4.50;2.30;;;20.70;99.90;;;;;;4980432;28;20125;-73
2021/09/09 09:16:44;;;;;;;6.68;1.60;;;21.00;99.90;;;;;;4982279;28;20394;-73
2021/09/09 09:19:15;;;;;;;2.70;1.65;;;21.30;99.90;;;;;;4982480;28;20031;-73
2021/09/09 09:21:44;;;;;;;5.72;2.35;;;21.30;99.90;;;;;;4982153;28;20019;-73
2021/09/09 09:24:13;;;;;;;2.72;1.83;;;21.40;99.90;;;;;;4980932;28;20035;-73
2021/09/09 09:26:39;;;;;;;3.20;1.88;;;22.40;99.90;;;;;;4982195;28;20046;-73
2021/09/09 09:29:06;;;;;;;2.47;1.30;;;22.50;99.90;;;;;;4982259;28;20027;-73
2021/09/09 09:31:35;;;;;;;5.10;1.73;;;22.70;99.90;;;;;;4982165;28;20105;-73
2021/09/09 09:34:08;;;;;;;1.83;1.17;;;23.80;99.90;;;;;;4982295;28;20026;-73
2021/09/09 09:36:36;;;;;;;3.45;1.38;;;24.90;99.90;;;;;;4981881;28;20425;-73
2021/09/09 09:39:13;;;;;;;2.22;1.52;;;24.70;99.90;;;;;;4982092;28;20030;-73
2021/09/09 09:41:55;;;;;;;2.78;1.20;;;25.20;99.90;;;;;;4980773;28;20023;-73
2021/09/09 09:44:41;;;;;;;1.70;1.25;;;25.40;99.90;;;;;;4981788;28;20030;-73
2021/09/09 09:47:20;;;;;;;2.35;1.42;;;26.20;99.90;;;;;;4980595;28;20115;-73
2021/09/09 09:49:53;;;;;;;2.05;1.25;;;26.70;99.90;;;;;;4982051;28;20022;-74
2021/09/09 09:52:23;;;;;;;4.50;1.50;;;27.10;99.90;;;;;;4981402;28;20022;-71
2021/09/09 09:54:53;;;;;;;5.50;1.40;;;27.30;99.90;;;;;;4982151;28;20047;-71
2021/09/09 09:57:21;;;;;;;2.80;1.17;;;26.60;99.90;;;;;;4981602;28;20019;-71
2021/09/09 09:59:46;;;;;;;4.40;1.80;;;25.70;99.90;;;;;;4981968;28;20018;-71
2021/09/09 10:02:13;;;;;;;4.03;2.10;;;24.00;99.90;;;;;;4981549;28;20033;-72
2021/09/09 10:04:47;;;;;;;4.35;1.75;;;23.20;99.90;;;;;;4981895;28;20383;-71
2021/09/09 10:07:13;;;;;;;2.53;2.33;;;;;;;;;;4980269;28;20019;-71
2021/09/09 10:09:41;;;;;;;8.32;2.85;;;22.50;99.90;;;;;;4981122;28;20105;-71
2021/09/09 10:12:11;;;;;;;5.32;2.45;;;22.50;99.90;;;;;;4981519;28;20022;-71
2021/09/09 10:14:45;;;;;;;6.68;2.33;;;22.80;99.90;;;;;;4981525;28;20027;-71
2021/09/09 10:17:12;;;;;;;5.85;2.47;;;23.10;99.90;;;;;;4980377;28;20030;-71
2021/09/09 10:19:38;;;;;;;5.82;2.72;;;23.20;99.90;;;;;;4981216;28;20033;-73
2021/09/09 10:22:12;;;;;;;3.47;2.33;;;23.90;99.90;;;;;;4981443;28;20437;-73
2021/09/09 10:24:41;;;;;;;3.97;2.20;;;24.20;99.90;;;;;;4979840;28;20038;-73
2021/09/09 10:27:23;;;;;;;2.53;1.52;;;24.20;99.90;;;;;;4981293;28;20495;-73
2021/09/09 10:29:54;;;;;;;9.23;2.88;;;25.90;99.90;;;;;;4981250;28;20113;-73
2021/09/09 10:32:29;;;;;;;3.88;2.00;;;26.30;99.90;;;;;;4979873;28;20019;-74
2021/09/09 10:35:17;;;;;;;4.80;1.63;;;27.10;99.90;;;;;;4981228;28;20065;-74
2021/09/09 10:37:48;;;;;;;5.07;2.25;;;29.00;99.90;;;;;;4980516;28;20031;-74
2021/09/09 10:40:35;;;;;;;6.57;1.88;;;28.90;99.90;;;;;;4981059;28;20030;-73
2021/09/09 10:43:12;;;;;;;4.18;2.05;;;28.10;99.90;;;;;;4980949;28;20069;-74
2021/09/09 10:45:42;;;;;;;6.32;2.22;;;27.40;99.90;;;;;;4981057;28;20487;-74
2021/09/09 10:48:18;;;;;;;2.55;1.90;;;26.30;99.90;;;;;;4980841;28;20055;-74
2021/09/09 10:51:14;;;;;;;6.15;2.33;;;24.80;99.90;;;;;;4980746;28;20027;-74
2021/09/09 10:53:57;;;;;;;5.20;2.55;;;23.90;99.90;;;;;;4980438;28;20446;-74
2021/09/09 10:56:24;;;;;;;6.07;2.47;;;23.70;99.90;;;;;;4979304;28;20034;-74
2021/09/09 10:59:15;;;;;;;8.18;2.70;;;23.70;99.90;;;;;;4979202;28;20491;-74
2021/09/09 11:01:45;;;;;;;7.68;2.35;;;24.00;99.90;;;;;;4980657;28;20030;-74
2021/09/09 11:04:28;;;;;;;8.57;2.72;;;24.30;99.90;;;;;;4980520;28;20027;-74
2021/09/09 11:06:54;;;;;;;11.48;3.28;;;24.50;99.90;;;;;;4980296;28;20393;-74
2021/09/09 11:09:20;;;;;;;5.40;2.65;;;24.70;99.90;;;;;;4980231;28;20051;-74
2021/09/09 11:11:59;;;;;;;7.78;3.00;;;24.70;99.90;;;;;;4980250;28;20085;-74
2021/09/09 11:14:25;;;;;;;5.18;2.50;;;25.00;99.90;;;;;;4979574;28;20035;-74
2021/09/09 11:16:51;;;;;;;6.85;2.35;;;25.70;99.90;;;;;;4980045;28;20111;-74
2021/09/09 11:19:23;;;;;;;6.88;2.33;;;25.70;99.90;;;;;;4980257;28;20027;-74
2021/09/09 11:21:50;;;;;;;7.07;2.50;;;25.70;99.90;;;;;;4980173;28;20077;-74
2021/09/09 11:24:17;;;;;;;7.80;2.70;;;25.50;99.90;;;;;;4979942;28;20078;-74
2021/09/09 11:26:46;;;;;;;6.25;2.42;;;25.30;99.90;;;;;;4979225;28;20082;-74
2021/09/09 11:29:12;;;;;;;8.02;3.13;;;25.00;99.90;;;;;;4980078;28;20070;-74
2021/09/09 11:31:56;;;;;;;8.85;3.63;;;24.80;99.90;;;;;;4980091;28;20027;-74
2021/09/09 11:34:27;;;;;;;6.63;2.90;;;24.60;99.90;;;;;;4979879;28;20027;-74
2021/09/09 11:36:53;;;;;;;5.85;2.50;;;24.50;99.90;;;;;;4979698;28;20503;-74
2021/09/09 11:39:22;;;;;;;5.55;3.17;;;24.60;99.90;;;;;;4979704;28;20026;-74
2021/09/09 11:41:51;;;;;;;5.47;2.83;;;24.20;99.90;;;;;;4979902;28;20506;-74
2021/09/09 11:44:34;;;;;;;6.30;3.08;;;23.50;99.90;;;;;;4979578;28;20029;-74
2021/09/09 11:47:11;;;;;;;6.35;3.45;;;23.20;99.90;;;;;;4979687;28;20363;-74
2021/09/09 11:49:38;;;;;;;5.75;2.85;;;22.90;99.90;;;;;;4980055;28;20023;-74
2021/09/09 11:52:05;;;;;;;5.43;3.28;;;22.80;99.90;;;;;;4977989;28;20027;-74
2021/09/09 11:54:33;;;;;;;7.72;2.80;;;22.60;99.90;;;;;;4979603;28;20023;-74
2021/09/09 11:57:04;;;;;;;7.60;3.70;;;22.80;99.90;;;;;;4979360;28;20106;-74
2021/09/09 11:59:31;;;;;;;9.43;3.35;;;23.20;99.90;;;;;;4979594;28;20491;-74
2021/09/09 12:02:32;;;;;;;7.28;3.33;;;23.40;99.90;;;;;;4979407;28;20035;-74
2021/09/09 12:05:00;;;;;;;7.25;3.40;;;23.70;99.90;;;;;;4979310;28;20418;-73
2021/09/09 12:07:30;;;;;;;5.30;3.05;;;23.90;99.90;;;;;;4978810;28;20018;-73
2021/09/09 12:09:58;;;;;;;8.27;2.78;;;24.60;99.90;;;;;;4979277;28;20509;-73
2021/09/09 12:12:27;;;;;;;4.00;2.67;;;24.50;99.90;;;;;;4978037;28;20492;-73
2021/09/09 12:15:01;;;;;;;6.68;3.25;;;24.80;99.90;;;;;;4977898;28;20031;-73
2021/09/09 12:17:27;;;;;;;8.80;2.78;;;25.00;99.90;;;;;;4977708;28;20400;-73
2021/09/09 12:20:00;;;;;;;6.95;2.92;;;25.20;99.90;;;;;;4979070;28;20090;-73
2021/09/09 12:22:53;;;;;;;9.65;3.05;;;24.90;99.90;;;;;;4978906;28;20023;-73
2021/09/09 12:25:24;;;;;;;6.00;2.72;;;24.30;99.90;;;;;;4977810;28;20079;-73
2021/09/09 12:28:08;;;;;;;8.25;2.45;;;24.20;99.90;;;;;;4978994;28;20082;-73
2021/09/09 12:30:35;;;;;;;4.47;1.92;;;25.40;99.90;;;;;;4978144;28;20038;-73
2021/09/09 12:33:16;;;;;;;9.65;3.50;;;26.80;99.90;;;;;;4978739;28;20086;-74
2021/09/09 12:36:08;;;;;;;7.25;2.50;;;27.30;99.90;;;;;;4978925;28;20031;-73
2021/09/09 12:38:43;;;;;;;5.93;2.30;;;26.90;99.90;;;;;;4978766;28;20037;-73
2021/09/09 12:41:10;;;;;;;5.70;1.90;;;27.30;99.90;;;;;;4978740;28;20463;-73
2021/09/09 12:43:40;;;;;;;4.90;2.00;;;27.40;99.90;;;;;;4978745;28;20289;-73
2021/09/09 12:46:06;;;;;;;7.10;1.80;;;27.60;99.90;;;;;;4978710;28;20109;-73
2021/09/09 12:48:33;;;;;;;4.82;1.67;;;27.90;99.90;;;;;;4978356;28;20033;-73
2021/09/09 12:51:03;;;;;;;5.60;1.67;;;28.00;99.90;;;;;;4977531;28;20015;-73
2021/09/09 12:53:31;;;;;;;4.97;1.75;;;28.10;99.90;;;;;;4978267;28;20490;-73
2021/09/09 12:55:59;;;;;;;4.25;1.75;;;27.90;99.90;;;;;;4978765;28;20035;-73
2021/09/09 12:58:25;;;;;;;4.70;1.80;;;27.80;99.90;;;;;;4978615;28;20475;-73